createdAt,value
2019-04-22T00:00:44.844Z,16.80
2019-04-22T00:03:18.407Z,16.70
2019-04-22T00:06:14.915Z,16.70
2019-04-22T00:08:56.050Z,16.70
2019-04-22T00:14:28.092Z,16.60
2019-04-22T00:17:20.337Z,16.60
2019-04-22T00:19:57.649Z,16.60
2019-04-22T00:25:03.280Z,16.50
2019-04-22T00:27:41.478Z,16.50
2019-04-22T00:30:07.305Z,16.50
2019-04-22T00:32:27.258Z,16.50
2019-04-22T00:35:03.920Z,16.40
2019-04-22T00:37:28.608Z,16.40
2019-04-22T00:39:57.808Z,16.40
2019-04-22T00:42:41.295Z,16.40
2019-04-22T00:51:30.148Z,16.30
2019-04-22T00:54:43.883Z,16.20
2019-04-22T00:59:58.266Z,16.20
2019-04-22T01:02:41.601Z,16.10
2019-04-22T01:08:09.795Z,16.10
2019-04-22T01:10:41.570Z,16.10
2019-04-22T01:13:20.041Z,16.00
2019-04-22T01:15:57.471Z,16.00
2019-04-22T01:18:24.898Z,16.00
2019-04-22T01:21:05.961Z,15.90
2019-04-22T01:23:28.270Z,15.90
2019-04-22T01:26:02.495Z,15.90
2019-04-22T01:28:34.150Z,15.80
2019-04-22T01:31:01.057Z,15.80
2019-04-22T01:33:32.476Z,15.80
2019-04-22T01:36:23.211Z,15.70
2019-04-22T01:38:58.382Z,15.70
2019-04-22T01:41:41.811Z,15.70
2019-04-22T01:44:19.358Z,15.70
2019-04-22T01:46:45.734Z,15.60
2019-04-22T01:54:40.274Z,15.60
2019-04-22T01:57:03.306Z,15.50
2019-04-22T01:59:29.196Z,15.50
2019-04-22T02:02:09.263Z,15.50
2019-04-22T02:07:14.049Z,15.40
2019-04-22T02:09:42.678Z,15.30
2019-04-22T02:12:14.647Z,15.30
2019-04-22T02:14:44.343Z,15.30
2019-04-22T02:17:26.646Z,15.30
2019-04-22T02:22:29.082Z,15.20
2019-04-22T02:25:18.532Z,15.20
2019-04-22T02:27:33.845Z,15.10
2019-04-22T02:29:57.962Z,15.10
2019-04-22T02:33:21.822Z,15.10
2019-04-22T02:35:23.961Z,15.00
2019-04-22T02:38:31.097Z,15.00
2019-04-22T02:40:57.819Z,15.00
2019-04-22T02:43:26.005Z,14.90
2019-04-22T02:46:10.670Z,14.90
2019-04-22T02:51:21.945Z,14.90
2019-04-22T03:01:36.917Z,14.70
2019-04-22T03:10:04.844Z,14.70
2019-04-22T03:18:00.587Z,14.60
2019-04-22T03:20:42.071Z,14.50
2019-04-22T03:23:25.410Z,14.50
2019-04-22T03:34:38.703Z,14.40
2019-04-22T03:39:27.757Z,14.30
2019-04-22T03:42:06.416Z,14.30
2019-04-22T03:47:33.598Z,14.20
2019-04-22T03:52:44.448Z,14.20
2019-04-22T03:55:38.725Z,14.10
2019-04-22T03:58:11.172Z,14.10
2019-04-22T04:01:06.503Z,14.10
2019-04-22T04:03:46.468Z,14.10
2019-04-22T04:06:22.978Z,14.00
2019-04-22T04:09:19.340Z,14.00
2019-04-22T04:11:59.263Z,14.00
2019-04-22T04:14:46.622Z,14.00
2019-04-22T04:29:36.268Z,13.80
2019-04-22T04:34:47.843Z,13.80
2019-04-22T04:48:47.191Z,13.60
2019-04-22T04:51:16.287Z,13.60
2019-04-22T04:53:58.278Z,13.60
2019-04-22T04:59:46.001Z,13.60
2019-04-22T05:04:49.113Z,13.60
2019-04-22T05:07:10.761Z,13.60
2019-04-22T05:09:55.550Z,13.60
2019-04-22T05:15:00.988Z,13.50
2019-04-22T05:17:57.672Z,13.50
2019-04-22T05:21:04.758Z,13.50
2019-04-22T05:26:04.202Z,13.50
2019-04-22T05:28:59.758Z,13.50
2019-04-22T05:31:35.532Z,13.40
2019-04-22T05:34:09.668Z,13.40
2019-04-22T05:36:41.286Z,13.40
2019-04-22T05:39:06.207Z,13.40
2019-04-22T05:41:43.380Z,13.40
2019-04-22T05:44:08.453Z,13.40
2019-04-22T05:46:34.790Z,13.40
2019-04-22T05:49:23.871Z,13.40
2019-04-22T05:52:17.268Z,13.40
2019-04-22T06:06:42.643Z,13.40
2019-04-22T06:08:29.287Z,13.40
2019-04-22T06:11:33.551Z,13.40
2019-04-22T06:14:18.977Z,13.40
2019-04-22T06:16:45.721Z,13.40
2019-04-22T06:19:21.174Z,13.40
2019-04-22T06:21:44.124Z,13.40
2019-04-22T06:36:45.087Z,13.30
2019-04-22T07:02:23.835Z,13.60
2019-04-22T07:05:19.667Z,13.60
2019-04-22T07:07:51.898Z,13.60
2019-04-22T07:17:04.036Z,13.80
2019-04-22T07:19:28.838Z,13.80
2019-04-22T07:33:15.023Z,13.90
2019-04-22T07:34:25.339Z,14.00
2019-04-22T07:36:53.608Z,14.00
2019-04-22T07:39:15.676Z,14.10
2019-04-22T07:41:47.577Z,14.20
2019-04-22T07:44:22.089Z,14.20
2019-04-22T07:46:49.934Z,14.20
2019-04-22T07:49:24.027Z,14.30
2019-04-22T07:51:44.610Z,14.30
2019-04-22T07:54:39.683Z,14.40
2019-04-22T07:56:51.838Z,14.50
2019-04-22T07:59:22.434Z,14.50
2019-04-22T08:01:53.656Z,14.50
2019-04-22T08:06:51.575Z,14.70
2019-04-22T08:09:31.806Z,14.70
2019-04-22T08:14:22.467Z,14.80
2019-04-22T08:16:51.860Z,14.90
2019-04-22T08:19:22.775Z,14.90
2019-04-22T08:21:59.959Z,15.00
2019-04-22T08:24:22.768Z,15.10
2019-04-22T08:26:53.121Z,15.10
2019-04-22T08:32:17.534Z,15.20
2019-04-22T08:35:00.516Z,15.30
2019-04-22T08:37:44.785Z,15.40
2019-04-22T08:39:50.423Z,15.40
2019-04-22T08:42:27.094Z,15.50
2019-04-22T08:45:08.090Z,15.60
2019-04-22T08:47:31.178Z,15.70
2019-04-22T08:50:15.060Z,15.90
2019-04-22T08:53:02.110Z,16.20
2019-04-22T08:55:42.620Z,16.60
2019-04-22T09:00:44.633Z,17.00
2019-04-22T09:03:10.999Z,17.10
2019-04-22T09:08:19.104Z,17.20
2019-04-22T09:13:14.344Z,17.30
2019-04-22T09:15:48.878Z,17.20
2019-04-22T09:18:25.503Z,17.20
2019-04-22T09:21:04.748Z,17.10
2019-04-22T09:23:27.126Z,17.20
2019-04-22T09:25:59.840Z,17.20
2019-04-22T09:28:23.957Z,17.20
2019-04-22T09:31:01.354Z,17.20
2019-04-22T09:33:27.814Z,17.30
2019-04-22T09:36:05.607Z,17.30
2019-04-22T09:41:00.706Z,17.30
2019-04-22T09:45:59.131Z,17.40
2019-04-22T09:48:38.507Z,17.50
2019-04-22T09:51:00.730Z,17.50
2019-04-22T09:56:10.147Z,17.60
2019-04-22T09:58:44.726Z,17.70
2019-04-22T10:01:22.752Z,17.70
2019-04-22T10:03:53.373Z,17.80
2019-04-22T10:06:23.179Z,17.80
2019-04-22T10:09:10.765Z,17.90
2019-04-22T10:11:25.122Z,17.90
2019-04-22T10:13:54.071Z,17.90
2019-04-22T10:16:25.328Z,18.00
2019-04-22T10:18:52.910Z,18.10
2019-04-22T10:21:33.625Z,18.10
2019-04-22T10:23:50.697Z,18.20
2019-04-22T10:26:30.072Z,18.20
2019-04-22T10:29:06.934Z,18.30
2019-04-22T10:31:37.014Z,18.40
2019-04-22T10:33:56.159Z,18.40
2019-04-22T10:36:11.077Z,18.50
2019-04-22T10:38:46.594Z,18.60
2019-04-22T10:41:16.470Z,18.70
2019-04-22T10:43:48.964Z,18.70
2019-04-22T10:46:19.944Z,18.70
2019-04-22T10:48:56.218Z,18.70
2019-04-22T10:51:26.998Z,18.80
2019-04-22T10:53:55.685Z,18.80
2019-04-22T10:56:34.770Z,18.80
2019-04-22T10:59:06.855Z,18.80
2019-04-22T11:01:38.512Z,18.90
2019-04-22T11:04:08.947Z,18.90
2019-04-22T11:06:40.946Z,18.90
2019-04-22T11:09:08.699Z,19.00
2019-04-22T11:11:54.225Z,19.00
2019-04-22T11:14:16.777Z,19.00
2019-04-22T11:16:47.663Z,19.00
2019-04-22T11:19:17.356Z,19.00
2019-04-22T11:21:58.925Z,19.00
2019-04-22T11:24:16.835Z,19.00
2019-04-22T11:26:59.069Z,18.90
2019-04-22T11:29:27.956Z,18.90
2019-04-22T11:32:00.248Z,19.00
2019-04-22T11:34:29.112Z,19.00
2019-04-22T11:36:58.964Z,19.00
2019-04-22T11:39:36.146Z,19.00
2019-04-22T11:42:07.820Z,19.00
2019-04-22T11:44:39.574Z,19.00
2019-04-22T11:47:09.534Z,19.00
2019-04-22T11:49:39.628Z,19.10
2019-04-22T11:52:38.879Z,19.10
2019-04-22T11:54:48.532Z,19.10
2019-04-22T11:57:19.045Z,19.20
2019-04-22T11:59:56.582Z,19.20
2019-04-22T12:02:33.176Z,19.20
2019-04-22T12:05:02.144Z,19.20
2019-04-22T12:07:40.414Z,19.30
2019-04-22T12:10:25.355Z,19.30
2019-04-22T12:12:47.942Z,19.40
2019-04-22T12:15:17.061Z,19.40
2019-04-22T12:17:49.041Z,19.50
2019-04-22T12:20:19.767Z,19.50
2019-04-22T12:23:09.423Z,19.50
2019-04-22T12:25:48.764Z,19.60
2019-04-22T12:28:11.112Z,19.60
2019-04-22T12:30:39.918Z,19.70
2019-04-22T12:33:10.953Z,19.70
2019-04-22T12:35:38.935Z,19.70
2019-04-22T12:38:16.999Z,19.80
2019-04-22T12:40:56.628Z,19.80
2019-04-22T12:43:29.912Z,19.90
2019-04-22T12:46:02.497Z,20.00
2019-04-22T12:48:35.150Z,20.00
2019-04-22T12:51:06.915Z,20.10
2019-04-22T12:53:42.233Z,20.10
2019-04-22T12:56:13.216Z,20.20
2019-04-22T12:58:51.816Z,20.20
2019-04-22T13:01:21.231Z,20.30
2019-04-22T13:04:32.361Z,20.30
2019-04-22T13:06:57.712Z,20.30
2019-04-22T13:09:41.169Z,20.30
2019-04-22T13:12:11.059Z,20.30
2019-04-22T13:14:41.241Z,20.30
2019-04-22T13:17:10.342Z,20.30
2019-04-22T13:19:40.304Z,20.30
2019-04-22T13:22:09.356Z,20.30
2019-04-22T13:24:37.864Z,20.30
2019-04-22T13:27:10.929Z,20.30
2019-04-22T13:29:46.565Z,20.30
2019-04-22T13:32:14.360Z,20.30
2019-04-22T13:34:52.431Z,20.30
2019-04-22T13:37:20.912Z,20.30
2019-04-22T13:41:07.241Z,20.30
2019-04-22T13:43:05.467Z,20.30
2019-04-22T13:45:40.775Z,20.30
2019-04-22T13:48:31.191Z,20.30
2019-04-22T13:51:30.173Z,20.30
2019-04-22T13:56:19.131Z,20.30
2019-04-22T13:58:40.988Z,20.30
2019-04-22T14:01:00.722Z,20.30
2019-04-22T14:03:48.860Z,20.40
2019-04-22T14:06:18.636Z,20.40
2019-04-22T14:08:53.510Z,20.40
2019-04-22T14:11:32.341Z,20.40
2019-04-22T14:13:58.847Z,20.40
2019-04-22T14:16:28.866Z,20.40
2019-04-22T14:19:02.018Z,20.40
2019-04-22T14:21:47.515Z,20.40
2019-04-22T14:24:17.948Z,20.40
2019-04-22T14:26:58.782Z,20.40
2019-04-22T14:29:26.055Z,20.40
2019-04-22T14:32:28.059Z,20.40
2019-04-22T14:34:30.284Z,20.40
2019-04-22T14:37:01.461Z,20.40
2019-04-22T14:39:31.693Z,20.40
2019-04-22T14:42:27.069Z,20.50
2019-04-22T14:45:21.942Z,20.50
2019-04-22T14:48:02.720Z,20.50
2019-04-22T14:50:34.063Z,20.50
2019-04-22T14:53:18.877Z,20.50
2019-04-22T14:55:34.273Z,20.50
2019-04-22T14:58:04.782Z,20.50
2019-04-22T15:00:42.253Z,20.50
2019-04-22T15:03:17.557Z,20.50
2019-04-22T15:05:48.562Z,20.60
2019-04-22T15:08:21.288Z,20.50
2019-04-22T15:10:50.012Z,20.60
2019-04-22T15:13:18.433Z,20.60
2019-04-22T15:15:51.115Z,20.60
2019-04-22T15:18:51.657Z,20.60
2019-04-22T15:21:11.009Z,20.60
2019-04-22T15:23:40.455Z,20.60
2019-04-22T15:26:12.620Z,20.50
2019-04-22T15:28:41.774Z,20.50
2019-04-22T15:31:21.533Z,20.50
2019-04-22T15:34:34.658Z,20.50
2019-04-22T15:37:00.019Z,20.50
2019-04-22T15:39:33.997Z,20.50
2019-04-22T15:42:11.528Z,20.50
2019-04-22T15:44:35.754Z,20.40
2019-04-22T15:47:09.137Z,20.40
2019-04-22T15:49:52.163Z,20.50
2019-04-22T15:53:00.764Z,20.40
2019-04-22T15:55:29.888Z,20.40
2019-04-22T15:58:19.831Z,20.40
2019-04-22T16:00:57.682Z,20.40
2019-04-22T16:03:18.677Z,20.40
2019-04-22T16:05:50.320Z,20.40
2019-04-22T16:08:19.221Z,20.40
2019-04-22T16:10:51.708Z,20.40
2019-04-22T16:13:28.366Z,20.40
2019-04-22T16:15:56.471Z,20.40
2019-04-22T16:18:28.464Z,20.40
2019-04-22T16:21:00.473Z,20.40
2019-04-22T16:23:32.343Z,20.40
2019-04-22T16:26:11.698Z,20.40
2019-04-22T16:28:55.911Z,20.40
2019-04-22T16:31:31.362Z,20.30
2019-04-22T16:34:05.472Z,20.30
2019-04-22T16:36:44.878Z,20.30
2019-04-22T16:39:18.658Z,20.30
2019-04-22T16:41:51.149Z,20.30
2019-04-22T16:44:20.745Z,20.30
2019-04-22T16:46:57.399Z,20.30
2019-04-22T16:49:34.502Z,20.30
2019-04-22T16:52:10.032Z,20.30
2019-04-22T16:54:37.920Z,20.30
2019-04-22T16:57:15.639Z,20.20
2019-04-22T16:59:49.035Z,20.20
2019-04-22T17:02:24.617Z,20.20
2019-04-22T17:05:02.409Z,20.20
2019-04-22T17:07:31.988Z,20.20
2019-04-22T17:10:01.945Z,20.20
2019-04-22T17:12:48.911Z,20.20
2019-04-22T17:15:10.673Z,20.20
2019-04-22T17:17:36.217Z,20.10
2019-04-22T17:20:07.238Z,20.10
2019-04-22T17:22:39.779Z,20.10
2019-04-22T17:25:09.077Z,20.10
2019-04-22T17:27:43.359Z,20.10
2019-04-22T17:30:14.716Z,20.00
2019-04-22T17:32:54.737Z,20.00
2019-04-22T17:35:33.949Z,20.00
2019-04-22T17:38:12.781Z,20.00
2019-04-22T17:40:51.104Z,20.00
2019-04-22T17:43:36.102Z,20.00
2019-04-22T17:46:17.692Z,20.00
2019-04-22T17:49:10.463Z,19.90
2019-04-22T17:51:46.614Z,19.90
2019-04-22T17:54:15.343Z,19.90
2019-04-22T17:56:49.684Z,19.90
2019-04-22T17:59:23.346Z,19.80
2019-04-22T18:01:49.235Z,19.80
2019-04-22T18:04:12.278Z,19.80
2019-04-22T18:07:13.385Z,19.80
2019-04-22T18:10:06.610Z,19.80
2019-04-22T18:12:14.557Z,19.70
2019-04-22T18:14:51.623Z,19.70
2019-04-22T18:17:11.534Z,19.70
2019-04-22T18:19:39.955Z,19.70
2019-04-22T18:22:03.277Z,19.70
2019-04-22T18:24:28.292Z,19.60
2019-04-22T18:27:29.208Z,19.60
2019-04-22T18:29:41.761Z,19.60
2019-04-22T18:32:02.750Z,19.60
2019-04-22T18:34:35.155Z,19.50
2019-04-22T18:37:09.322Z,19.50
2019-04-22T18:39:46.370Z,19.50
2019-04-22T18:42:09.391Z,19.50
2019-04-22T18:44:47.335Z,19.50
2019-04-22T18:47:11.704Z,19.40
2019-04-22T18:49:42.896Z,19.40
2019-04-22T18:52:19.698Z,19.40
2019-04-22T18:54:54.744Z,19.40
2019-04-22T18:57:22.610Z,19.40
2019-04-22T18:59:40.067Z,19.30
2019-04-22T19:02:11.808Z,19.30
2019-04-22T19:04:44.339Z,19.30
2019-04-22T19:07:35.199Z,19.30
2019-04-22T19:10:04.864Z,19.20
2019-04-22T19:12:33.820Z,19.20
2019-04-22T19:15:03.477Z,19.20
2019-04-22T19:17:39.230Z,19.20
2019-04-22T19:20:09.425Z,19.20
2019-04-22T19:22:36.499Z,19.20
2019-04-22T19:24:57.984Z,19.10
2019-04-22T19:27:32.507Z,19.10
2019-04-22T19:30:14.289Z,19.10
2019-04-22T19:32:40.134Z,19.10
2019-04-22T19:35:07.107Z,19.00
2019-04-22T19:37:33.209Z,19.00
2019-04-22T19:40:26.041Z,19.00
2019-04-22T19:42:49.594Z,19.00
2019-04-22T19:45:05.882Z,18.90
2019-04-22T19:47:59.900Z,18.90
2019-04-22T19:50:11.672Z,18.90
2019-04-22T19:52:39.994Z,18.90
2019-04-22T19:55:12.327Z,18.90
2019-04-22T19:57:40.309Z,18.90
2019-04-22T20:00:18.382Z,18.90
2019-04-22T20:03:18.618Z,18.80
2019-04-22T20:05:54.590Z,18.80
2019-04-22T20:08:26.771Z,18.80
2019-04-22T20:10:52.295Z,18.70
2019-04-22T20:13:33.550Z,18.70
2019-04-22T20:15:51.898Z,18.70
2019-04-22T20:18:34.433Z,18.70
2019-04-22T20:21:04.183Z,18.70
2019-04-22T20:23:29.394Z,18.70
2019-04-22T20:26:00.459Z,18.70
2019-04-22T20:28:36.849Z,18.60
2019-04-22T20:31:08.407Z,18.60
2019-04-22T20:33:48.159Z,18.60
2019-04-22T20:36:26.477Z,18.60
2019-04-22T20:38:39.877Z,18.50
2019-04-22T20:41:08.966Z,18.50
2019-04-22T20:44:11.241Z,18.50
2019-04-22T20:46:22.436Z,18.50
2019-04-22T20:48:56.854Z,18.50
2019-04-22T20:51:28.010Z,18.50
2019-04-22T20:54:02.100Z,18.40
2019-04-22T20:56:30.157Z,18.40
2019-04-22T20:59:05.039Z,18.40
2019-04-22T21:01:35.680Z,18.40
2019-04-22T21:03:50.943Z,18.40
2019-04-22T21:06:33.475Z,18.30
2019-04-22T21:09:09.656Z,18.30
2019-04-22T21:11:35.321Z,18.30
2019-04-22T21:14:08.408Z,18.30
2019-04-22T21:16:38.157Z,18.20
2019-04-22T21:19:21.762Z,18.20
2019-04-22T21:21:52.716Z,18.20
2019-04-22T21:24:20.652Z,18.20
2019-04-22T21:26:57.039Z,18.20
2019-04-22T21:29:29.477Z,18.10
2019-04-22T21:32:05.806Z,18.10
2019-04-22T21:34:45.941Z,18.10
2019-04-22T21:37:21.954Z,18.10
2019-04-22T21:39:40.825Z,18.10
2019-04-22T21:42:18.557Z,18.00
2019-04-22T21:44:51.166Z,18.00
2019-04-22T21:47:35.290Z,18.00
2019-04-22T21:50:22.133Z,17.90
2019-04-22T21:52:40.572Z,17.90
2019-04-22T21:55:16.388Z,17.90
2019-04-22T21:58:02.634Z,17.90
2019-04-22T22:00:44.556Z,17.90
2019-04-22T22:03:14.273Z,17.80
2019-04-22T22:05:38.138Z,17.80
2019-04-22T22:08:05.597Z,17.80
2019-04-22T22:10:45.189Z,17.80
2019-04-22T22:13:11.181Z,17.80
2019-04-22T22:15:46.564Z,17.80
2019-04-22T22:18:10.167Z,17.70
2019-04-22T22:20:53.819Z,17.70
2019-04-22T22:23:25.377Z,17.70
2019-04-22T22:25:47.958Z,17.70
2019-04-22T22:28:40.207Z,17.70
2019-04-22T22:31:08.871Z,17.60
2019-04-22T22:33:28.262Z,17.60
2019-04-22T22:36:03.562Z,17.60
2019-04-22T22:38:29.699Z,17.60
2019-04-22T22:40:55.928Z,17.50
2019-04-22T22:43:31.981Z,17.50
2019-04-22T22:46:11.955Z,17.50
2019-04-22T22:49:03.186Z,17.50
2019-04-22T22:51:39.478Z,17.50
2019-04-22T22:54:11.988Z,17.50
2019-04-22T22:56:47.553Z,17.50
2019-04-22T22:59:08.223Z,17.40
2019-04-22T23:01:39.536Z,17.40
2019-04-22T23:04:16.252Z,17.40
2019-04-22T23:06:45.515Z,17.40
2019-04-22T23:09:10.010Z,17.40
2019-04-22T23:14:21.947Z,17.30
2019-04-22T23:16:39.407Z,17.30
2019-04-22T23:19:05.154Z,17.30
2019-04-22T23:21:46.028Z,17.30
2019-04-22T23:24:38.277Z,17.30
2019-04-22T23:27:10.324Z,17.20
2019-04-22T23:29:44.764Z,17.20
2019-04-22T23:32:17.685Z,17.20
2019-04-22T23:34:55.913Z,17.20
2019-04-22T23:37:39.352Z,17.20
2019-04-22T23:40:24.292Z,17.20
2019-04-22T23:42:48.279Z,17.20
2019-04-22T23:45:21.100Z,17.10
2019-04-22T23:47:43.489Z,17.10
2019-04-22T23:50:26.661Z,17.10
2019-04-22T23:52:59.541Z,17.10
2019-04-22T23:55:34.261Z,17.10
2019-04-22T23:58:02.629Z,17.10
